sensor_id;sensor_type;location;lat;lon;timestamp;P1;durP1;ratioP1;P2;durP2;ratioP2
66739;SDS011;53653;52.188;8.602;2022-08-24T00:00:52;6.97;;;2.40;;
66739;SDS011;53653;52.188;8.602;2022-08-24T00:03:19;8.95;;;2.50;;
66739;SDS011;53653;52.188;8.602;2022-08-24T00:05:44;6.90;;;2.63;;
66739;SDS011;53653;52.188;8.602;2022-08-24T00:08:09;6.93;;;2.53;;
66739;SDS011;53653;52.188;8.602;2022-08-24T00:10:35;6.03;;;2.30;;
66739;SDS011;53653;52.188;8.602;2022-08-24T00:13:00;6.60;;;2.50;;
66739;SDS011;53653;52.188;8.602;2022-08-24T00:15:26;9.67;;;2.70;;
66739;SDS011;53653;52.188;8.602;2022-08-24T00:17:51;5.40;;;2.40;;
66739;SDS011;53653;52.188;8.602;2022-08-24T00:20:17;6.07;;;2.40;;
66739;SDS011;53653;52.188;8.602;2022-08-24T00:22:42;5.73;;;2.57;;
66739;SDS011;53653;52.188;8.602;2022-08-24T00:25:09;6.28;;;2.67;;
66739;SDS011;53653;52.188;8.602;2022-08-24T00:27:36;10.37;;;2.53;;
66739;SDS011;53653;52.188;8.602;2022-08-24T00:30:03;5.90;;;2.50;;
66739;SDS011;53653;52.188;8.602;2022-08-24T00:32:31;6.78;;;2.80;;
66739;SDS011;53653;52.188;8.602;2022-08-24T00:34:56;6.17;;;2.67;;
66739;SDS011;53653;52.188;8.602;2022-08-24T00:37:22;8.00;;;2.75;;
66739;SDS011;53653;52.188;8.602;2022-08-24T00:39:49;7.50;;;2.50;;
66739;SDS011;53653;52.188;8.602;2022-08-24T00:42:15;6.67;;;2.60;;
66739;SDS011;53653;52.188;8.602;2022-08-24T00:44:40;7.57;;;2.87;;
66739;SDS011;53653;52.188;8.602;2022-08-24T00:47:20;6.60;;;2.63;;
66739;SDS011;53653;52.188;8.602;2022-08-24T00:49:52;6.70;;;2.80;;
66739;SDS011;53653;52.188;8.602;2022-08-24T00:52:25;6.50;;;2.60;;
66739;SDS011;53653;52.188;8.602;2022-08-24T00:55:15;5.50;;;2.70;;
66739;SDS011;53653;52.188;8.602;2022-08-24T00:57:43;8.30;;;2.80;;
66739;SDS011;53653;52.188;8.602;2022-08-24T01:00:18;7.23;;;2.70;;
66739;SDS011;53653;52.188;8.602;2022-08-24T01:02:48;10.30;;;2.58;;
66739;SDS011;53653;52.188;8.602;2022-08-24T01:05:17;5.80;;;2.58;;
66739;SDS011;53653;52.188;8.602;2022-08-24T01:07:43;5.75;;;2.55;;
66739;SDS011;53653;52.188;8.602;2022-08-24T01:10:14;9.40;;;2.97;;
66739;SDS011;53653;52.188;8.602;2022-08-24T01:12:45;7.53;;;2.70;;
66739;SDS011;53653;52.188;8.602;2022-08-24T01:15:13;7.45;;;2.47;;
66739;SDS011;53653;52.188;8.602;2022-08-24T01:17:39;8.32;;;2.70;;
66739;SDS011;53653;52.188;8.602;2022-08-24T01:20:24;7.82;;;3.00;;
66739;SDS011;53653;52.188;8.602;2022-08-24T01:23:03;7.97;;;2.60;;
66739;SDS011;53653;52.188;8.602;2022-08-24T01:25:29;5.63;;;2.40;;
66739;SDS011;53653;52.188;8.602;2022-08-24T01:27:58;6.90;;;2.50;;
66739;SDS011;53653;52.188;8.602;2022-08-24T01:30:28;5.97;;;2.50;;
66739;SDS011;53653;52.188;8.602;2022-08-24T01:32:58;6.85;;;2.80;;
66739;SDS011;53653;52.188;8.602;2022-08-24T01:35:27;8.60;;;2.97;;
66739;SDS011;53653;52.188;8.602;2022-08-24T01:37:54;6.57;;;2.80;;
66739;SDS011;53653;52.188;8.602;2022-08-24T01:40:25;7.50;;;2.60;;
66739;SDS011;53653;52.188;8.602;2022-08-24T01:42:56;8.05;;;2.75;;
66739;SDS011;53653;52.188;8.602;2022-08-24T01:45:22;6.40;;;2.57;;
66739;SDS011;53653;52.188;8.602;2022-08-24T01:47:47;6.47;;;2.90;;
66739;SDS011;53653;52.188;8.602;2022-08-24T01:50:13;6.17;;;2.67;;
66739;SDS011;53653;52.188;8.602;2022-08-24T01:52:39;7.13;;;2.70;;
66739;SDS011;53653;52.188;8.602;2022-08-24T01:55:07;6.75;;;2.67;;
66739;SDS011;53653;52.188;8.602;2022-08-24T01:57:34;7.30;;;2.80;;
66739;SDS011;53653;52.188;8.602;2022-08-24T02:00:00;6.93;;;2.83;;
66739;SDS011;53653;52.188;8.602;2022-08-24T02:02:27;6.47;;;2.53;;
66739;SDS011;53653;52.188;8.602;2022-08-24T02:04:55;7.40;;;2.85;;
66739;SDS011;53653;52.188;8.602;2022-08-24T02:07:20;6.60;;;2.77;;
66739;SDS011;53653;52.188;8.602;2022-08-24T02:09:47;6.60;;;2.77;;
66739;SDS011;53653;52.188;8.602;2022-08-24T02:12:12;8.73;;;3.03;;
66739;SDS011;53653;52.188;8.602;2022-08-24T02:14:39;5.87;;;2.50;;
66739;SDS011;53653;52.188;8.602;2022-08-24T02:17:05;8.20;;;2.95;;
66739;SDS011;53653;52.188;8.602;2022-08-24T02:19:32;7.47;;;2.72;;
66739;SDS011;53653;52.188;8.602;2022-08-24T02:21:58;12.15;;;3.00;;
66739;SDS011;53653;52.188;8.602;2022-08-24T02:24:24;6.47;;;2.75;;
66739;SDS011;53653;52.188;8.602;2022-08-24T02:26:50;7.13;;;2.53;;
66739;SDS011;53653;52.188;8.602;2022-08-24T02:29:16;6.10;;;2.50;;
66739;SDS011;53653;52.188;8.602;2022-08-24T02:31:41;7.50;;;2.60;;
66739;SDS011;53653;52.188;8.602;2022-08-24T02:34:07;9.10;;;2.90;;
66739;SDS011;53653;52.188;8.602;2022-08-24T02:36:33;9.07;;;2.63;;
66739;SDS011;53653;52.188;8.602;2022-08-24T02:38:59;6.97;;;2.42;;
66739;SDS011;53653;52.188;8.602;2022-08-24T02:41:25;7.77;;;2.60;;
66739;SDS011;53653;52.188;8.602;2022-08-24T02:43:51;6.60;;;2.50;;
66739;SDS011;53653;52.188;8.602;2022-08-24T02:46:18;8.02;;;2.65;;
66739;SDS011;53653;52.188;8.602;2022-08-24T02:48:45;7.43;;;3.00;;
66739;SDS011;53653;52.188;8.602;2022-08-24T02:51:17;6.90;;;2.90;;
66739;SDS011;53653;52.188;8.602;2022-08-24T02:53:53;6.10;;;2.72;;
66739;SDS011;53653;52.188;8.602;2022-08-24T02:56:18;8.10;;;2.80;;
66739;SDS011;53653;52.188;8.602;2022-08-24T02:58:45;8.82;;;2.50;;
66739;SDS011;53653;52.188;8.602;2022-08-24T03:01:11;8.05;;;3.10;;
66739;SDS011;53653;52.188;8.602;2022-08-24T03:03:37;6.68;;;2.90;;
66739;SDS011;53653;52.188;8.602;2022-08-24T03:06:04;11.40;;;3.20;;
66739;SDS011;53653;52.188;8.602;2022-08-24T03:08:30;8.98;;;2.78;;
66739;SDS011;53653;52.188;8.602;2022-08-24T03:10:55;9.27;;;2.75;;
66739;SDS011;53653;52.188;8.602;2022-08-24T03:13:22;5.87;;;2.60;;
66739;SDS011;53653;52.188;8.602;2022-08-24T03:15:48;9.00;;;3.13;;
66739;SDS011;53653;52.188;8.602;2022-08-24T03:18:14;7.13;;;2.60;;
66739;SDS011;53653;52.188;8.602;2022-08-24T03:20:39;7.72;;;3.22;;
66739;SDS011;53653;52.188;8.602;2022-08-24T03:23:05;10.23;;;3.00;;
66739;SDS011;53653;52.188;8.602;2022-08-24T03:25:30;9.17;;;2.70;;
66739;SDS011;53653;52.188;8.602;2022-08-24T03:27:56;10.02;;;2.83;;
66739;SDS011;53653;52.188;8.602;2022-08-24T03:30:22;7.87;;;2.70;;
66739;SDS011;53653;52.188;8.602;2022-08-24T03:32:48;8.77;;;2.63;;
66739;SDS011;53653;52.188;8.602;2022-08-24T03:35:14;6.13;;;2.55;;
66739;SDS011;53653;52.188;8.602;2022-08-24T03:37:41;9.95;;;3.13;;
66739;SDS011;53653;52.188;8.602;2022-08-24T03:40:08;6.30;;;2.70;;
66739;SDS011;53653;52.188;8.602;2022-08-24T03:42:36;10.82;;;2.95;;
66739;SDS011;53653;52.188;8.602;2022-08-24T03:45:02;12.98;;;3.17;;
66739;SDS011;53653;52.188;8.602;2022-08-24T03:47:28;7.10;;;3.00;;
66739;SDS011;53653;52.188;8.602;2022-08-24T03:49:53;8.97;;;3.43;;
66739;SDS011;53653;52.188;8.602;2022-08-24T03:52:20;8.75;;;3.03;;
66739;SDS011;53653;52.188;8.602;2022-08-24T03:54:45;7.95;;;2.90;;
66739;SDS011;53653;52.188;8.602;2022-08-24T03:57:11;7.43;;;2.70;;
66739;SDS011;53653;52.188;8.602;2022-08-24T03:59:37;6.78;;;3.20;;
66739;SDS011;53653;52.188;8.602;2022-08-24T04:02:03;7.63;;;3.10;;
66739;SDS011;53653;52.188;8.602;2022-08-24T04:04:28;8.43;;;3.30;;
66739;SDS011;53653;52.188;8.602;2022-08-24T04:06:54;7.80;;;3.28;;
66739;SDS011;53653;52.188;8.602;2022-08-24T04:09:19;9.07;;;2.80;;
66739;SDS011;53653;52.188;8.602;2022-08-24T04:11:45;6.10;;;2.80;;
66739;SDS011;53653;52.188;8.602;2022-08-24T04:14:11;10.52;;;3.33;;
66739;SDS011;53653;52.188;8.602;2022-08-24T04:16:37;12.40;;;3.40;;
66739;SDS011;53653;52.188;8.602;2022-08-24T04:19:03;7.32;;;3.10;;
66739;SDS011;53653;52.188;8.602;2022-08-24T04:21:29;7.30;;;3.40;;
66739;SDS011;53653;52.188;8.602;2022-08-24T04:23:57;9.07;;;3.37;;
66739;SDS011;53653;52.188;8.602;2022-08-24T04:26:24;6.82;;;3.05;;
66739;SDS011;53653;52.188;8.602;2022-08-24T04:28:51;7.35;;;3.15;;
66739;SDS011;53653;52.188;8.602;2022-08-24T04:31:17;9.82;;;3.05;;
66739;SDS011;53653;52.188;8.602;2022-08-24T04:33:44;6.50;;;3.22;;
66739;SDS011;53653;52.188;8.602;2022-08-24T04:36:11;9.80;;;3.43;;
66739;SDS011;53653;52.188;8.602;2022-08-24T04:38:36;10.50;;;3.60;;
66739;SDS011;53653;52.188;8.602;2022-08-24T04:41:06;9.70;;;3.83;;
66739;SDS011;53653;52.188;8.602;2022-08-24T04:43:35;9.32;;;3.30;;
66739;SDS011;53653;52.188;8.602;2022-08-24T04:46:03;11.60;;;3.97;;
66739;SDS011;53653;52.188;8.602;2022-08-24T04:48:30;7.20;;;3.35;;
66739;SDS011;53653;52.188;8.602;2022-08-24T04:50:59;10.13;;;3.80;;
66739;SDS011;53653;52.188;8.602;2022-08-24T04:53:26;8.15;;;3.13;;
66739;SDS011;53653;52.188;8.602;2022-08-24T04:55:52;7.35;;;3.25;;
66739;SDS011;53653;52.188;8.602;2022-08-24T04:58:18;8.13;;;3.30;;
66739;SDS011;53653;52.188;8.602;2022-08-24T05:00:43;10.63;;;3.50;;
66739;SDS011;53653;52.188;8.602;2022-08-24T05:03:09;11.55;;;3.95;;
66739;SDS011;53653;52.188;8.602;2022-08-24T05:05:39;9.13;;;3.90;;
66739;SDS011;53653;52.188;8.602;2022-08-24T05:08:06;8.15;;;3.83;;
66739;SDS011;53653;52.188;8.602;2022-08-24T05:10:33;10.37;;;3.70;;
66739;SDS011;53653;52.188;8.602;2022-08-24T05:12:58;11.10;;;3.80;;
66739;SDS011;53653;52.188;8.602;2022-08-24T05:15:24;7.40;;;3.80;;
66739;SDS011;53653;52.188;8.602;2022-08-24T05:17:49;11.87;;;3.80;;
66739;SDS011;53653;52.188;8.602;2022-08-24T05:20:15;8.77;;;3.80;;
66739;SDS011;53653;52.188;8.602;2022-08-24T05:22:41;9.55;;;3.72;;
66739;SDS011;53653;52.188;8.602;2022-08-24T05:25:07;7.75;;;3.42;;
66739;SDS011;53653;52.188;8.602;2022-08-24T05:27:33;9.53;;;3.60;;
66739;SDS011;53653;52.188;8.602;2022-08-24T05:29:59;9.50;;;3.40;;
66739;SDS011;53653;52.188;8.602;2022-08-24T05:32:24;8.53;;;3.33;;
66739;SDS011;53653;52.188;8.602;2022-08-24T05:34:50;11.93;;;4.00;;
66739;SDS011;53653;52.188;8.602;2022-08-24T05:37:15;11.50;;;3.83;;
66739;SDS011;53653;52.188;8.602;2022-08-24T05:39:40;10.77;;;3.97;;
66739;SDS011;53653;52.188;8.602;2022-08-24T05:42:06;7.97;;;3.70;;
66739;SDS011;53653;52.188;8.602;2022-08-24T05:44:31;13.67;;;4.60;;
66739;SDS011;53653;52.188;8.602;2022-08-24T05:46:57;11.73;;;4.07;;
66739;SDS011;53653;52.188;8.602;2022-08-24T05:49:24;10.82;;;3.60;;
66739;SDS011;53653;52.188;8.602;2022-08-24T05:51:50;7.70;;;3.67;;
66739;SDS011;53653;52.188;8.602;2022-08-24T05:54:16;10.88;;;3.92;;
66739;SDS011;53653;52.188;8.602;2022-08-24T05:56:43;7.72;;;3.80;;
66739;SDS011;53653;52.188;8.602;2022-08-24T05:59:08;10.68;;;3.65;;
66739;SDS011;53653;52.188;8.602;2022-08-24T06:01:34;10.87;;;3.60;;
66739;SDS011;53653;52.188;8.602;2022-08-24T06:04:00;11.05;;;3.45;;
66739;SDS011;53653;52.188;8.602;2022-08-24T06:06:26;12.85;;;3.80;;
66739;SDS011;53653;52.188;8.602;2022-08-24T06:08:54;9.98;;;4.10;;
66739;SDS011;53653;52.188;8.602;2022-08-24T06:13:57;6.75;;;3.85;;
66739;SDS011;53653;52.188;8.602;2022-08-24T06:16:25;9.00;;;4.10;;
66739;SDS011;53653;52.188;8.602;2022-08-24T06:18:51;12.53;;;4.50;;
66739;SDS011;53653;52.188;8.602;2022-08-24T06:21:25;8.55;;;3.83;;
66739;SDS011;53653;52.188;8.602;2022-08-24T06:23:51;9.52;;;3.80;;
66739;SDS011;53653;52.188;8.602;2022-08-24T06:26:17;7.80;;;3.80;;
66739;SDS011;53653;52.188;8.602;2022-08-24T06:29:01;11.00;;;5.18;;
66739;SDS011;53653;52.188;8.602;2022-08-24T06:31:27;9.05;;;3.72;;
66739;SDS011;53653;52.188;8.602;2022-08-24T06:33:53;13.67;;;3.80;;
66739;SDS011;53653;52.188;8.602;2022-08-24T06:36:19;7.50;;;3.58;;
66739;SDS011;53653;52.188;8.602;2022-08-24T06:38:45;10.52;;;3.88;;
66739;SDS011;53653;52.188;8.602;2022-08-24T06:41:11;8.70;;;3.38;;
66739;SDS011;53653;52.188;8.602;2022-08-24T06:43:37;9.93;;;3.80;;
66739;SDS011;53653;52.188;8.602;2022-08-24T06:46:02;10.33;;;3.80;;
66739;SDS011;53653;52.188;8.602;2022-08-24T06:48:28;9.98;;;3.67;;
66739;SDS011;53653;52.188;8.602;2022-08-24T06:50:55;8.45;;;3.55;;
66739;SDS011;53653;52.188;8.602;2022-08-24T06:53:21;11.25;;;3.83;;
66739;SDS011;53653;52.188;8.602;2022-08-24T06:55:51;10.23;;;3.80;;
66739;SDS011;53653;52.188;8.602;2022-08-24T06:58:18;10.35;;;3.65;;
66739;SDS011;53653;52.188;8.602;2022-08-24T07:00:44;9.57;;;3.57;;
66739;SDS011;53653;52.188;8.602;2022-08-24T07:03:11;8.63;;;3.38;;
66739;SDS011;53653;52.188;8.602;2022-08-24T07:05:37;10.45;;;3.83;;
66739;SDS011;53653;52.188;8.602;2022-08-24T07:08:03;9.10;;;3.70;;
66739;SDS011;53653;52.188;8.602;2022-08-24T07:10:29;8.27;;;3.63;;
66739;SDS011;53653;52.188;8.602;2022-08-24T07:12:55;7.68;;;3.65;;
66739;SDS011;53653;52.188;8.602;2022-08-24T07:15:21;6.13;;;3.20;;
66739;SDS011;53653;52.188;8.602;2022-08-24T07:17:47;12.18;;;3.83;;
66739;SDS011;53653;52.188;8.602;2022-08-24T07:20:12;8.73;;;3.60;;
66739;SDS011;53653;52.188;8.602;2022-08-24T07:22:38;8.67;;;3.83;;
66739;SDS011;53653;52.188;8.602;2022-08-24T07:25:04;7.95;;;3.70;;
66739;SDS011;53653;52.188;8.602;2022-08-24T07:27:30;7.50;;;3.50;;
66739;SDS011;53653;52.188;8.602;2022-08-24T07:29:55;6.85;;;3.40;;
66739;SDS011;53653;52.188;8.602;2022-08-24T07:32:21;10.33;;;4.00;;
66739;SDS011;53653;52.188;8.602;2022-08-24T07:34:47;9.82;;;3.90;;
66739;SDS011;53653;52.188;8.602;2022-08-24T07:37:13;9.55;;;3.60;;
66739;SDS011;53653;52.188;8.602;2022-08-24T07:39:38;11.10;;;3.30;;
66739;SDS011;53653;52.188;8.602;2022-08-24T07:42:03;9.07;;;3.50;;
66739;SDS011;53653;52.188;8.602;2022-08-24T07:44:29;7.13;;;3.27;;
66739;SDS011;53653;52.188;8.602;2022-08-24T07:46:55;8.57;;;3.40;;
66739;SDS011;53653;52.188;8.602;2022-08-24T07:49:21;7.57;;;3.65;;
66739;SDS011;53653;52.188;8.602;2022-08-24T07:51:47;9.83;;;3.40;;
66739;SDS011;53653;52.188;8.602;2022-08-24T07:54:13;8.57;;;3.50;;
66739;SDS011;53653;52.188;8.602;2022-08-24T07:56:39;6.70;;;3.20;;
66739;SDS011;53653;52.188;8.602;2022-08-24T07:59:05;7.72;;;3.30;;
66739;SDS011;53653;52.188;8.602;2022-08-24T08:01:31;8.27;;;3.20;;
66739;SDS011;53653;52.188;8.602;2022-08-24T08:03:57;9.57;;;3.38;;
66739;SDS011;53653;52.188;8.602;2022-08-24T08:06:22;7.93;;;3.30;;
66739;SDS011;53653;52.188;8.602;2022-08-24T08:08:48;6.97;;;3.23;;
66739;SDS011;53653;52.188;8.602;2022-08-24T08:11:13;7.50;;;3.40;;
66739;SDS011;53653;52.188;8.602;2022-08-24T08:13:39;8.07;;;3.00;;
66739;SDS011;53653;52.188;8.602;2022-08-24T08:16:05;9.57;;;3.30;;
66739;SDS011;53653;52.188;8.602;2022-08-24T08:18:30;10.93;;;3.50;;
66739;SDS011;53653;52.188;8.602;2022-08-24T08:20:56;7.60;;;3.30;;
66739;SDS011;53653;52.188;8.602;2022-08-24T08:23:22;9.18;;;3.65;;
66739;SDS011;53653;52.188;8.602;2022-08-24T08:26:06;6.78;;;3.42;;
66739;SDS011;53653;52.188;8.602;2022-08-24T08:28:35;6.83;;;3.20;;
66739;SDS011;53653;52.188;8.602;2022-08-24T08:31:01;6.70;;;3.30;;
66739;SDS011;53653;52.188;8.602;2022-08-24T08:33:29;6.40;;;3.27;;
66739;SDS011;53653;52.188;8.602;2022-08-24T08:35:59;7.47;;;3.30;;
66739;SDS011;53653;52.188;8.602;2022-08-24T08:38:28;12.27;;;3.70;;
66739;SDS011;53653;52.188;8.602;2022-08-24T08:54:12;8.43;;;3.40;;
66739;SDS011;53653;52.188;8.602;2022-08-24T09:07:34;7.32;;;3.47;;
66739;SDS011;53653;52.188;8.602;2022-08-24T09:11:32;9.32;;;3.65;;
66739;SDS011;53653;52.188;8.602;2022-08-24T09:13:57;8.13;;;3.20;;
66739;SDS011;53653;52.188;8.602;2022-08-24T09:22:37;7.85;;;3.50;;
66739;SDS011;53653;52.188;8.602;2022-08-24T09:36:47;6.35;;;3.25;;
66739;SDS011;53653;52.188;8.602;2022-08-24T09:39:25;8.25;;;3.20;;
66739;SDS011;53653;52.188;8.602;2022-08-24T10:00:18;6.57;;;3.33;;
66739;SDS011;53653;52.188;8.602;2022-08-24T10:05:33;9.55;;;3.40;;
66739;SDS011;53653;52.188;8.602;2022-08-24T10:08:08;8.45;;;3.20;;
66739;SDS011;53653;52.188;8.602;2022-08-24T10:31:13;6.68;;;3.40;;
66739;SDS011;53653;52.188;8.602;2022-08-24T10:36:30;6.35;;;3.45;;
66739;SDS011;53653;52.188;8.602;2022-08-24T10:47:20;8.07;;;3.45;;
66739;SDS011;53653;52.188;8.602;2022-08-24T10:52:46;7.20;;;3.30;;
66739;SDS011;53653;52.188;8.602;2022-08-24T10:55:29;7.90;;;3.22;;
66739;SDS011;53653;52.188;8.602;2022-08-24T10:58:18;7.50;;;3.38;;
66739;SDS011;53653;52.188;8.602;2022-08-24T11:03:49;9.43;;;3.65;;
66739;SDS011;53653;52.188;8.602;2022-08-24T11:06:19;7.43;;;3.60;;
66739;SDS011;53653;52.188;8.602;2022-08-24T11:08:53;7.53;;;3.50;;
66739;SDS011;53653;52.188;8.602;2022-08-24T11:16:46;6.30;;;3.80;;
66739;SDS011;53653;52.188;8.602;2022-08-24T11:19:33;8.07;;;3.55;;
66739;SDS011;53653;52.188;8.602;2022-08-24T11:22:19;9.27;;;3.67;;
66739;SDS011;53653;52.188;8.602;2022-08-24T11:24:53;8.87;;;3.67;;
66739;SDS011;53653;52.188;8.602;2022-08-24T11:29:59;9.07;;;3.60;;
66739;SDS011;53653;52.188;8.602;2022-08-24T11:40:45;6.47;;;3.40;;
66739;SDS011;53653;52.188;8.602;2022-08-24T12:00:11;10.05;;;3.50;;
66739;SDS011;53653;52.188;8.602;2022-08-24T12:08:02;7.97;;;3.33;;
66739;SDS011;53653;52.188;8.602;2022-08-24T12:13:09;9.23;;;4.10;;
66739;SDS011;53653;52.188;8.602;2022-08-24T12:18:39;7.82;;;3.30;;
66739;SDS011;53653;52.188;8.602;2022-08-24T12:21:12;8.73;;;3.55;;
66739;SDS011;53653;52.188;8.602;2022-08-24T12:23:41;9.77;;;3.30;;
66739;SDS011;53653;52.188;8.602;2022-08-24T12:28:39;9.43;;;3.60;;
66739;SDS011;53653;52.188;8.602;2022-08-24T12:31:30;8.95;;;3.47;;
66739;SDS011;53653;52.188;8.602;2022-08-24T12:34:08;8.13;;;3.63;;
66739;SDS011;53653;52.188;8.602;2022-08-24T12:36:45;12.30;;;3.97;;
66739;SDS011;53653;52.188;8.602;2022-08-24T12:39:21;6.63;;;3.60;;
66739;SDS011;53653;52.188;8.602;2022-08-24T12:42:05;7.88;;;3.67;;
66739;SDS011;53653;52.188;8.602;2022-08-24T12:56:30;7.97;;;3.65;;
66739;SDS011;53653;52.188;8.602;2022-08-24T13:01:54;6.95;;;4.00;;
66739;SDS011;53653;52.188;8.602;2022-08-24T13:04:32;13.47;;;4.00;;
66739;SDS011;53653;52.188;8.602;2022-08-24T13:20:21;6.90;;;3.33;;
66739;SDS011;53653;52.188;8.602;2022-08-24T13:23:04;9.33;;;3.43;;
66739;SDS011;53653;52.188;8.602;2022-08-24T13:28:38;7.85;;;3.80;;
66739;SDS011;53653;52.188;8.602;2022-08-24T13:39:10;9.35;;;3.45;;
66739;SDS011;53653;52.188;8.602;2022-08-24T13:44:15;10.17;;;3.70;;
66739;SDS011;53653;52.188;8.602;2022-08-24T13:53:00;9.10;;;3.60;;
66739;SDS011;53653;52.188;8.602;2022-08-24T13:58:38;7.97;;;3.13;;
66739;SDS011;53653;52.188;8.602;2022-08-24T14:20:48;7.25;;;3.42;;
66739;SDS011;53653;52.188;8.602;2022-08-24T14:25:41;7.43;;;3.13;;
66739;SDS011;53653;52.188;8.602;2022-08-24T14:31:17;8.13;;;3.20;;
66739;SDS011;53653;52.188;8.602;2022-08-24T14:34:08;6.73;;;3.17;;
66739;SDS011;53653;52.188;8.602;2022-08-24T14:36:42;6.75;;;3.25;;
66739;SDS011;53653;52.188;8.602;2022-08-24T14:39:24;7.55;;;3.13;;
66739;SDS011;53653;52.188;8.602;2022-08-24T14:42:06;8.93;;;3.60;;
66739;SDS011;53653;52.188;8.602;2022-08-24T14:44:48;10.18;;;3.50;;
66739;SDS011;53653;52.188;8.602;2022-08-24T14:50:05;6.65;;;3.30;;
66739;SDS011;53653;52.188;8.602;2022-08-24T14:55:27;7.15;;;3.45;;
66739;SDS011;53653;52.188;8.602;2022-08-24T14:58:03;7.95;;;3.30;;
66739;SDS011;53653;52.188;8.602;2022-08-24T15:09:08;6.28;;;3.20;;
66739;SDS011;53653;52.188;8.602;2022-08-24T15:11:41;7.53;;;3.20;;
66739;SDS011;53653;52.188;8.602;2022-08-24T15:14:08;6.63;;;2.90;;
66739;SDS011;53653;52.188;8.602;2022-08-24T15:17:07;8.23;;;3.20;;
66739;SDS011;53653;52.188;8.602;2022-08-24T15:19:50;6.60;;;3.08;;
66739;SDS011;53653;52.188;8.602;2022-08-24T15:25:18;8.07;;;3.40;;
66739;SDS011;53653;52.188;8.602;2022-08-24T15:28:10;7.53;;;3.15;;
66739;SDS011;53653;52.188;8.602;2022-08-24T15:30:40;6.72;;;3.10;;
66739;SDS011;53653;52.188;8.602;2022-08-24T15:33:17;10.70;;;3.30;;
66739;SDS011;53653;52.188;8.602;2022-08-24T15:35:44;12.97;;;3.37;;
66739;SDS011;53653;52.188;8.602;2022-08-24T15:40:42;7.75;;;3.40;;
66739;SDS011;53653;52.188;8.602;2022-08-24T15:43:10;8.00;;;2.97;;
66739;SDS011;53653;52.188;8.602;2022-08-24T15:45:41;6.75;;;3.30;;
66739;SDS011;53653;52.188;8.602;2022-08-24T15:48:13;7.68;;;3.47;;
66739;SDS011;53653;52.188;8.602;2022-08-24T15:50:44;6.68;;;3.22;;
66739;SDS011;53653;52.188;8.602;2022-08-24T15:58:47;9.05;;;3.25;;
66739;SDS011;53653;52.188;8.602;2022-08-24T16:03:58;8.70;;;3.53;;
66739;SDS011;53653;52.188;8.602;2022-08-24T16:06:46;7.90;;;3.58;;
66739;SDS011;53653;52.188;8.602;2022-08-24T16:14:28;7.18;;;3.45;;
66739;SDS011;53653;52.188;8.602;2022-08-24T16:16:56;9.80;;;3.70;;
66739;SDS011;53653;52.188;8.602;2022-08-24T16:19:24;8.40;;;3.50;;
66739;SDS011;53653;52.188;8.602;2022-08-24T16:22:10;7.53;;;3.07;;
66739;SDS011;53653;52.188;8.602;2022-08-24T16:24:36;9.77;;;3.80;;
66739;SDS011;53653;52.188;8.602;2022-08-24T16:34:41;9.37;;;3.50;;
66739;SDS011;53653;52.188;8.602;2022-08-24T16:37:09;6.43;;;3.35;;
66739;SDS011;53653;52.188;8.602;2022-08-24T16:39:34;9.40;;;3.30;;
66739;SDS011;53653;52.188;8.602;2022-08-24T16:42:01;6.63;;;3.03;;
66739;SDS011;53653;52.188;8.602;2022-08-24T16:44:33;6.43;;;3.28;;
66739;SDS011;53653;52.188;8.602;2022-08-24T16:47:02;6.32;;;3.05;;
66739;SDS011;53653;52.188;8.602;2022-08-24T16:49:28;8.57;;;3.55;;
66739;SDS011;53653;52.188;8.602;2022-08-24T16:51:55;7.60;;;3.33;;
66739;SDS011;53653;52.188;8.602;2022-08-24T16:54:21;7.38;;;3.50;;
66739;SDS011;53653;52.188;8.602;2022-08-24T16:56:47;8.30;;;3.30;;
66739;SDS011;53653;52.188;8.602;2022-08-24T16:59:14;7.67;;;3.63;;
66739;SDS011;53653;52.188;8.602;2022-08-24T17:01:43;7.72;;;3.20;;
66739;SDS011;53653;52.188;8.602;2022-08-24T17:04:08;10.37;;;3.90;;
66739;SDS011;53653;52.188;8.602;2022-08-24T17:06:34;11.43;;;3.53;;
66739;SDS011;53653;52.188;8.602;2022-08-24T17:09:00;10.90;;;3.60;;
66739;SDS011;53653;52.188;8.602;2022-08-24T17:11:25;7.15;;;3.33;;
66739;SDS011;53653;52.188;8.602;2022-08-24T17:13:51;7.07;;;3.13;;
66739;SDS011;53653;52.188;8.602;2022-08-24T17:16:17;8.85;;;3.70;;
66739;SDS011;53653;52.188;8.602;2022-08-24T17:18:45;7.72;;;3.83;;
66739;SDS011;53653;52.188;8.602;2022-08-24T17:21:11;10.57;;;3.70;;
66739;SDS011;53653;52.188;8.602;2022-08-24T17:23:37;7.82;;;3.25;;
66739;SDS011;53653;52.188;8.602;2022-08-24T17:26:06;8.52;;;3.08;;
66739;SDS011;53653;52.188;8.602;2022-08-24T17:28:36;6.27;;;2.83;;
66739;SDS011;53653;52.188;8.602;2022-08-24T17:31:05;6.25;;;3.05;;
66739;SDS011;53653;52.188;8.602;2022-08-24T17:33:31;6.32;;;3.20;;
66739;SDS011;53653;52.188;8.602;2022-08-24T17:35:56;14.03;;;7.30;;
66739;SDS011;53653;52.188;8.602;2022-08-24T17:38:22;8.25;;;3.83;;
66739;SDS011;53653;52.188;8.602;2022-08-24T17:40:48;8.50;;;3.43;;
66739;SDS011;53653;52.188;8.602;2022-08-24T17:43:14;6.03;;;3.20;;
66739;SDS011;53653;52.188;8.602;2022-08-24T17:45:40;7.43;;;2.97;;
66739;SDS011;53653;52.188;8.602;2022-08-24T17:48:05;10.00;;;3.30;;
66739;SDS011;53653;52.188;8.602;2022-08-24T17:50:31;11.33;;;3.47;;
66739;SDS011;53653;52.188;8.602;2022-08-24T17:52:58;7.90;;;3.57;;
66739;SDS011;53653;52.188;8.602;2022-08-24T17:55:24;9.27;;;3.42;;
66739;SDS011;53653;52.188;8.602;2022-08-24T17:57:50;9.75;;;3.17;;
66739;SDS011;53653;52.188;8.602;2022-08-24T18:00:16;8.50;;;3.03;;
66739;SDS011;53653;52.188;8.602;2022-08-24T18:02:42;9.02;;;3.40;;
66739;SDS011;53653;52.188;8.602;2022-08-24T18:05:07;9.30;;;3.30;;
66739;SDS011;53653;52.188;8.602;2022-08-24T18:07:35;7.20;;;3.22;;
66739;SDS011;53653;52.188;8.602;2022-08-24T18:10:02;7.93;;;3.17;;
66739;SDS011;53653;52.188;8.602;2022-08-24T18:12:31;6.67;;;3.33;;
66739;SDS011;53653;52.188;8.602;2022-08-24T18:14:57;10.90;;;3.45;;
66739;SDS011;53653;52.188;8.602;2022-08-24T18:17:26;6.47;;;2.67;;
66739;SDS011;53653;52.188;8.602;2022-08-24T18:20:04;10.15;;;3.10;;
66739;SDS011;53653;52.188;8.602;2022-08-24T18:22:33;5.63;;;2.85;;
66739;SDS011;53653;52.188;8.602;2022-08-24T18:24:58;7.80;;;3.90;;
66739;SDS011;53653;52.188;8.602;2022-08-24T18:27:25;9.77;;;3.43;;
66739;SDS011;53653;52.188;8.602;2022-08-24T18:29:53;9.98;;;3.20;;
66739;SDS011;53653;52.188;8.602;2022-08-24T18:32:22;7.68;;;3.13;;
66739;SDS011;53653;52.188;8.602;2022-08-24T18:34:47;7.07;;;2.97;;
66739;SDS011;53653;52.188;8.602;2022-08-24T18:37:13;8.20;;;3.22;;
66739;SDS011;53653;52.188;8.602;2022-08-24T18:39:38;8.53;;;2.90;;
66739;SDS011;53653;52.188;8.602;2022-08-24T18:42:05;7.87;;;3.20;;
66739;SDS011;53653;52.188;8.602;2022-08-24T18:44:33;6.75;;;2.90;;
66739;SDS011;53653;52.188;8.602;2022-08-24T18:47:01;7.63;;;2.80;;
66739;SDS011;53653;52.188;8.602;2022-08-24T18:49:26;8.00;;;3.57;;
66739;SDS011;53653;52.188;8.602;2022-08-24T18:51:52;8.35;;;3.00;;
66739;SDS011;53653;52.188;8.602;2022-08-24T18:54:22;8.27;;;3.20;;
66739;SDS011;53653;52.188;8.602;2022-08-24T18:56:56;6.85;;;2.90;;
66739;SDS011;53653;52.188;8.602;2022-08-24T18:59:22;7.17;;;3.30;;
66739;SDS011;53653;52.188;8.602;2022-08-24T19:01:48;7.47;;;3.10;;
66739;SDS011;53653;52.188;8.602;2022-08-24T19:04:36;10.32;;;3.60;;
66739;SDS011;53653;52.188;8.602;2022-08-24T19:07:05;12.57;;;4.37;;
66739;SDS011;53653;52.188;8.602;2022-08-24T19:09:30;6.65;;;2.95;;
66739;SDS011;53653;52.188;8.602;2022-08-24T19:11:56;9.20;;;3.50;;
66739;SDS011;53653;52.188;8.602;2022-08-24T19:14:21;6.30;;;2.70;;
66739;SDS011;53653;52.188;8.602;2022-08-24T19:16:47;8.35;;;3.30;;
66739;SDS011;53653;52.188;8.602;2022-08-24T19:19:13;11.67;;;3.10;;
66739;SDS011;53653;52.188;8.602;2022-08-24T19:21:38;8.88;;;3.25;;